createdAt,value
2022-12-23T00:02:14.975Z,10.41
2022-12-23T00:05:17.959Z,10.35
2022-12-23T00:08:22.059Z,10.12
2022-12-23T00:11:26.848Z,10.19
2022-12-23T00:14:46.936Z,10.13
2022-12-23T00:17:49.767Z,10.09
2022-12-23T00:21:02.138Z,9.97
2022-12-23T00:24:07.808Z,9.98
2022-12-23T00:27:11.871Z,9.75
2022-12-23T00:30:14.772Z,9.87
2022-12-23T00:33:19.840Z,9.84
2022-12-23T00:36:27.716Z,9.83
2022-12-23T00:39:53.572Z,9.77
2022-12-23T00:42:58.949Z,9.71
2022-12-23T00:46:01.985Z,9.71
2022-12-23T00:49:22.650Z,9.76
2022-12-23T00:52:25.317Z,9.67
2022-12-23T00:55:28.122Z,9.83
2022-12-23T00:58:32.941Z,9.86
2022-12-23T01:01:53.201Z,9.90
2022-12-23T01:05:18.719Z,9.88
2022-12-23T01:08:21.363Z,9.76
2022-12-23T01:11:23.984Z,9.71
2022-12-23T01:14:28.308Z,9.68
2022-12-23T01:17:31.221Z,9.64
2022-12-23T01:20:33.854Z,9.58
2022-12-23T01:23:37.099Z,9.53
2022-12-23T01:26:39.769Z,9.55
2022-12-23T01:29:43.749Z,9.69
2022-12-23T01:32:46.350Z,9.60
2022-12-23T01:35:49.306Z,9.75
2022-12-23T01:38:52.352Z,9.73
2022-12-23T01:42:12.552Z,9.61
2022-12-23T01:45:19.876Z,9.65
2022-12-23T01:48:26.185Z,9.49
2022-12-23T01:51:31.167Z,9.43
2022-12-23T01:54:34.584Z,9.45
2022-12-23T01:57:39.973Z,9.39
2022-12-23T02:01:02.102Z,9.37
2022-12-23T02:04:08.495Z,9.37
2022-12-23T02:07:32.289Z,9.35
2022-12-23T02:10:46.618Z,9.44
2022-12-23T02:14:17.897Z,9.48
2022-12-23T02:17:30.163Z,9.54
2022-12-23T02:21:06.161Z,9.62
2022-12-23T02:24:39.945Z,9.64
2022-12-23T02:27:56.835Z,9.64
2022-12-23T02:31:04.519Z,9.64
2022-12-23T02:34:15.992Z,9.53
2022-12-23T02:37:23.202Z,9.60
2022-12-23T02:40:36.111Z,9.51
2022-12-23T02:43:44.556Z,9.44
2022-12-23T02:46:52.112Z,9.51
2022-12-23T02:49:57.964Z,9.44
2022-12-23T02:53:05.369Z,9.40
2022-12-23T02:56:11.284Z,9.40
2022-12-23T02:59:20.375Z,9.50
2022-12-23T03:02:25.287Z,9.57
2022-12-23T03:05:30.282Z,9.61
2022-12-23T03:08:40.427Z,9.61
2022-12-23T03:11:51.270Z,9.63
2022-12-23T03:15:09.043Z,9.65
2022-12-23T03:18:24.520Z,9.63
2022-12-23T03:21:36.374Z,9.67
2022-12-23T03:24:45.842Z,9.59
2022-12-23T03:27:53.580Z,9.67
2022-12-23T03:30:59.866Z,9.61
2022-12-23T03:34:07.661Z,9.69
2022-12-23T03:37:14.721Z,9.72
2022-12-23T03:40:20.479Z,9.64
2022-12-23T03:43:28.469Z,9.76
2022-12-23T03:46:35.333Z,9.78
2022-12-23T03:49:43.856Z,9.84
2022-12-23T03:52:53.627Z,9.86
2022-12-23T03:56:00.859Z,9.96
2022-12-23T03:59:09.192Z,10.03
2022-12-23T04:02:17.419Z,10.13
2022-12-23T04:05:27.317Z,10.18
2022-12-23T04:08:33.810Z,10.25
2022-12-23T04:11:38.107Z,10.22
2022-12-23T04:14:47.070Z,10.36
2022-12-23T04:17:50.608Z,10.47
2022-12-23T04:20:54.669Z,10.49
2022-12-23T04:23:57.367Z,10.49
2022-12-23T04:27:00.052Z,10.54
2022-12-23T04:30:03.416Z,10.51
2022-12-23T04:33:06.120Z,10.49
2022-12-23T04:36:10.199Z,10.46
2022-12-23T04:39:13.061Z,10.41
2022-12-23T04:42:15.778Z,10.54
2022-12-23T04:45:18.488Z,10.56
2022-12-23T04:48:21.449Z,10.60
2022-12-23T04:51:25.563Z,10.62
2022-12-23T04:54:28.520Z,10.66
2022-12-23T04:57:31.159Z,10.69
2022-12-23T05:00:39.501Z,10.70
2022-12-23T05:03:43.138Z,10.44
2022-12-23T05:06:47.173Z,10.60
2022-12-23T05:09:49.837Z,10.58
2022-12-23T05:12:52.531Z,10.53
2022-12-23T05:15:56.365Z,10.43
2022-12-23T05:18:59.130Z,10.27
2022-12-23T05:22:03.173Z,10.01
2022-12-23T05:25:06.921Z,10.08
2022-12-23T05:28:10.037Z,10.03
2022-12-23T05:31:13.942Z,9.99
2022-12-23T05:34:16.664Z,10.09
2022-12-23T05:37:20.756Z,10.16
2022-12-23T05:40:24.927Z,10.10
2022-12-23T05:43:30.023Z,10.27
2022-12-23T05:46:32.813Z,10.22
2022-12-23T05:49:35.651Z,10.25
2022-12-23T05:52:39.749Z,10.29
2022-12-23T05:55:42.530Z,10.30
2022-12-23T05:58:48.465Z,10.27
2022-12-23T06:01:51.436Z,10.27
2022-12-23T06:04:54.821Z,10.27
2022-12-23T06:07:59.228Z,10.15
2022-12-23T06:11:04.775Z,10.16
2022-12-23T06:14:07.747Z,10.20
2022-12-23T06:17:10.467Z,10.19
2022-12-23T06:20:20.049Z,10.01
2022-12-23T06:23:25.642Z,10.04
2022-12-23T06:26:28.435Z,10.15
2022-12-23T06:29:31.197Z,10.06
2022-12-23T06:32:38.281Z,10.12
2022-12-23T06:35:41.408Z,10.14
2022-12-23T06:38:45.433Z,10.13
2022-12-23T06:41:48.198Z,10.01
2022-12-23T06:44:50.861Z,10.14
2022-12-23T06:47:53.627Z,10.13
2022-12-23T06:50:56.278Z,10.17
2022-12-23T06:54:02.019Z,10.10
2022-12-23T06:57:04.828Z,10.14
2022-12-23T07:00:10.107Z,10.15
2022-12-23T07:03:12.884Z,9.86
2022-12-23T07:06:15.675Z,9.94
2022-12-23T07:09:19.807Z,9.96
2022-12-23T07:12:22.559Z,9.99
2022-12-23T07:15:25.283Z,10.05
2022-12-23T07:18:28.250Z,10.11
2022-12-23T07:21:31.103Z,10.17
2022-12-23T07:24:35.191Z,10.21
2022-12-23T07:27:37.904Z,10.23
2022-12-23T07:30:40.594Z,10.15
2022-12-23T07:33:43.353Z,10.27
2022-12-23T07:36:46.208Z,10.28
2022-12-23T07:39:50.202Z,10.30
2022-12-23T07:42:56.435Z,10.29
2022-12-23T07:46:00.594Z,10.32
2022-12-23T07:49:03.824Z,10.39
2022-12-23T07:52:06.525Z,10.42
2022-12-23T07:55:11.149Z,10.43
2022-12-23T07:58:13.848Z,10.37
2022-12-23T08:01:17.183Z,10.47
2022-12-23T08:04:19.982Z,10.51
2022-12-23T08:07:22.964Z,10.53
2022-12-23T08:10:27.006Z,10.57
2022-12-23T08:13:29.906Z,10.61
2022-12-23T08:16:37.856Z,10.71
2022-12-23T08:19:44.217Z,10.62
2022-12-23T08:22:46.904Z,10.68
2022-12-23T08:25:50.995Z,10.74
2022-12-23T08:28:53.902Z,10.80
2022-12-23T08:31:57.053Z,10.83
2022-12-23T08:34:59.818Z,10.80
2022-12-23T08:38:02.539Z,10.84
2022-12-23T08:41:09.993Z,10.90
2022-12-23T08:44:12.897Z,10.96
2022-12-23T08:47:15.656Z,11.01
2022-12-23T08:50:18.607Z,11.07
2022-12-23T08:53:21.344Z,11.13
2022-12-23T08:56:27.505Z,11.18
2022-12-23T08:59:30.267Z,11.18
2022-12-23T09:02:33.261Z,11.23
2022-12-23T09:05:41.198Z,11.28
2022-12-23T09:08:44.805Z,11.24
2022-12-23T09:11:48.894Z,11.42
2022-12-23T09:14:51.608Z,11.50
2022-12-23T09:17:54.436Z,11.51
2022-12-23T09:20:59.702Z,11.55
2022-12-23T09:24:03.035Z,11.37
2022-12-23T09:27:07.094Z,11.66
2022-12-23T09:30:11.277Z,11.54
2022-12-23T09:33:14.544Z,11.77
2022-12-23T09:36:18.259Z,11.77
2022-12-23T09:39:21.063Z,11.87
2022-12-23T09:42:45.514Z,11.87
2022-12-23T09:46:00.688Z,11.89
2022-12-23T09:49:10.572Z,11.94
2022-12-23T09:52:19.804Z,11.97
2022-12-23T09:55:27.936Z,11.91
2022-12-23T09:58:38.696Z,12.00
2022-12-23T10:01:49.999Z,11.94
2022-12-23T10:05:04.212Z,11.92
2022-12-23T10:08:14.062Z,12.10
2022-12-23T10:11:20.039Z,12.07
2022-12-23T10:14:28.214Z,12.11
2022-12-23T10:17:39.461Z,12.14
2022-12-23T10:20:48.865Z,12.20
2022-12-23T10:23:53.524Z,12.26
2022-12-23T10:26:58.517Z,12.25
2022-12-23T10:30:33.861Z,12.21
2022-12-23T10:33:39.978Z,12.19
2022-12-23T10:36:51.402Z,12.20
2022-12-23T10:40:10.925Z,12.17
2022-12-23T10:43:23.851Z,12.17
2022-12-23T10:46:39.990Z,12.23
2022-12-23T10:49:54.242Z,12.28
2022-12-23T10:53:00.875Z,12.19
2022-12-23T10:56:06.499Z,12.19
2022-12-23T10:59:15.609Z,12.28
2022-12-23T11:02:38.595Z,12.24
2022-12-23T11:05:42.117Z,12.22
2022-12-23T11:08:45.287Z,12.22
2022-12-23T11:11:59.380Z,12.16
2022-12-23T11:15:02.415Z,12.10
2022-12-23T11:18:17.079Z,12.12
2022-12-23T11:21:19.755Z,12.14
2022-12-23T11:24:24.385Z,12.16
2022-12-23T11:27:27.131Z,12.19
2022-12-23T11:30:32.521Z,12.20
2022-12-23T11:33:39.731Z,12.13
2022-12-23T11:36:42.944Z,12.07
2022-12-23T11:39:47.817Z,12.02
2022-12-23T11:42:55.616Z,12.11
2022-12-23T11:46:27.442Z,12.01
2022-12-23T11:49:32.328Z,12.02
2022-12-23T11:52:35.103Z,11.98
2022-12-23T11:55:40.618Z,11.87
2022-12-23T11:58:48.893Z,11.88
2022-12-23T12:01:51.861Z,11.72
2022-12-23T12:05:00.848Z,11.74
2022-12-23T12:08:07.614Z,11.59
2022-12-23T12:11:15.528Z,11.50
2022-12-23T12:14:23.847Z,11.46
2022-12-23T12:17:32.442Z,11.37
2022-12-23T12:20:40.308Z,11.02
2022-12-23T12:23:47.747Z,11.30
2022-12-23T12:26:53.507Z,11.28
2022-12-23T12:30:06.124Z,11.35
2022-12-23T12:33:20.671Z,11.47
2022-12-23T12:36:34.154Z,11.47
2022-12-23T12:39:42.436Z,11.50
2022-12-23T12:42:53.135Z,11.40
2022-12-23T12:46:12.747Z,11.20
2022-12-23T12:49:23.521Z,11.41
2022-12-23T12:52:29.127Z,11.26
2022-12-23T12:55:36.166Z,11.30
2022-12-23T12:58:41.382Z,11.50
2022-12-23T13:01:53.991Z,11.42
2022-12-23T13:05:21.057Z,11.38
2022-12-23T13:08:38.004Z,11.33
2022-12-23T13:11:47.364Z,11.32
2022-12-23T13:14:59.475Z,11.16
2022-12-23T13:18:19.262Z,11.20
2022-12-23T13:21:29.010Z,11.14
2022-12-23T13:24:41.501Z,11.32
2022-12-23T13:27:53.416Z,11.31
2022-12-23T13:31:02.267Z,11.31
2022-12-23T13:34:14.862Z,11.18
2022-12-23T13:37:28.968Z,11.15
2022-12-23T13:40:39.422Z,11.20
2022-12-23T13:43:47.927Z,11.16
2022-12-23T13:46:59.590Z,11.11
2022-12-23T13:50:12.373Z,11.00
2022-12-23T13:53:25.797Z,10.85
2022-12-23T13:56:34.999Z,10.94
2022-12-23T13:59:43.034Z,10.88
2022-12-23T14:02:53.647Z,10.83
2022-12-23T14:05:56.330Z,10.82
2022-12-23T14:08:59.344Z,10.84
2022-12-23T14:12:21.836Z,10.80
2022-12-23T14:16:03.203Z,10.73
2022-12-23T14:19:37.966Z,10.72
2022-12-23T14:22:52.113Z,10.75
2022-12-23T14:26:07.060Z,10.72
2022-12-23T14:29:29.777Z,10.67
2022-12-23T14:32:44.773Z,10.73
2022-12-23T14:35:53.570Z,10.71
2022-12-23T14:39:33.051Z,10.81
2022-12-23T14:42:40.791Z,10.71
2022-12-23T14:45:45.783Z,10.81
2022-12-23T14:49:38.202Z,10.77
2022-12-23T14:52:46.663Z,10.76
2022-12-23T14:55:52.038Z,10.66
2022-12-23T14:59:17.490Z,10.66
2022-12-23T15:02:28.365Z,10.69
2022-12-23T15:05:31.466Z,10.68
2022-12-23T15:08:39.822Z,10.56
2022-12-23T15:11:42.527Z,10.63
2022-12-23T15:14:50.193Z,10.64
2022-12-23T15:18:03.738Z,10.66
2022-12-23T15:21:13.299Z,10.60
2022-12-23T15:24:18.220Z,10.69
2022-12-23T15:27:30.225Z,10.59
2022-12-23T15:30:37.506Z,10.59
2022-12-23T15:37:04.857Z,10.63
2022-12-23T15:40:23.225Z,10.53
2022-12-23T15:43:26.069Z,10.62
2022-12-23T15:46:30.626Z,10.76
2022-12-23T15:49:35.828Z,10.59
2022-12-23T15:52:41.620Z,10.74
2022-12-23T15:55:44.615Z,10.81
2022-12-23T15:58:47.926Z,10.95
2022-12-23T16:01:51.896Z,11.12
2022-12-23T16:04:59.313Z,11.27
2022-12-23T16:08:28.218Z,11.39
2022-12-23T16:11:51.118Z,11.43
2022-12-23T16:14:57.920Z,11.66
2022-12-23T16:18:14.221Z,11.74
2022-12-23T16:21:18.301Z,11.81
2022-12-23T16:24:21.869Z,11.90
2022-12-23T16:27:34.255Z,11.87
2022-12-23T16:30:39.124Z,11.96
2022-12-23T16:33:45.007Z,12.02
2022-12-23T16:36:49.150Z,12.03
2022-12-23T16:39:51.970Z,12.06
2022-12-23T16:42:54.681Z,12.07
2022-12-23T16:45:58.935Z,12.09
2022-12-23T16:49:04.930Z,12.12
2022-12-23T16:52:14.119Z,12.15
2022-12-23T16:55:18.961Z,12.09
2022-12-23T16:58:21.660Z,12.06
2022-12-23T17:01:27.412Z,11.73
2022-12-23T17:04:30.105Z,12.13
2022-12-23T17:07:34.138Z,12.15
2022-12-23T17:10:37.182Z,12.18
2022-12-23T17:13:40.065Z,12.19
2022-12-23T17:16:42.860Z,12.14
2022-12-23T17:19:45.776Z,12.15
2022-12-23T17:22:54.022Z,12.20
2022-12-23T17:25:56.945Z,12.06
2022-12-23T17:28:59.638Z,12.18
2022-12-23T17:32:02.742Z,12.31
2022-12-23T17:35:06.196Z,12.35
2022-12-23T17:38:14.550Z,12.34
2022-12-23T17:41:23.329Z,12.35
2022-12-23T17:44:26.083Z,12.35
2022-12-23T17:47:28.789Z,12.33
2022-12-23T17:50:34.232Z,12.32
2022-12-23T17:53:38.280Z,12.32
2022-12-23T17:56:41.388Z,12.37
2022-12-23T17:59:47.703Z,12.40
2022-12-23T18:02:51.016Z,12.43
2022-12-23T18:06:01.275Z,12.48
2022-12-23T18:09:06.229Z,12.51
2022-12-23T18:12:25.102Z,12.52
2022-12-23T18:15:34.598Z,12.56
2022-12-23T18:18:45.910Z,12.67
2022-12-23T18:21:50.015Z,12.62
2022-12-23T18:24:59.162Z,12.49
2022-12-23T18:28:02.424Z,12.61
2022-12-23T18:31:05.387Z,12.59
2022-12-23T18:34:08.100Z,12.59
2022-12-23T18:37:10.798Z,12.57
2022-12-23T18:40:15.354Z,12.57
2022-12-23T18:43:20.853Z,12.56
2022-12-23T18:46:23.662Z,12.51
2022-12-23T18:49:26.395Z,12.49
2022-12-23T18:52:29.265Z,12.51
2022-12-23T18:55:33.403Z,12.48
2022-12-23T18:58:36.964Z,12.53
2022-12-23T19:01:39.634Z,12.46
2022-12-23T19:04:42.900Z,12.49
2022-12-23T19:07:45.950Z,12.46
2022-12-23T19:10:50.765Z,12.40
2022-12-23T19:13:53.469Z,12.46
2022-12-23T19:16:59.845Z,12.45
2022-12-23T19:20:02.936Z,12.43
2022-12-23T19:23:05.620Z,12.30
2022-12-23T19:26:10.487Z,12.38
2022-12-23T19:29:13.432Z,12.41
2022-12-23T19:32:16.249Z,12.43
2022-12-23T19:35:21.073Z,12.45
2022-12-23T19:38:23.867Z,12.40
2022-12-23T19:41:28.003Z,12.41
2022-12-23T19:44:30.723Z,12.42
2022-12-23T19:47:33.463Z,12.40
2022-12-23T19:50:36.165Z,12.40
2022-12-23T19:53:39.694Z,12.38
2022-12-23T19:56:43.965Z,12.31
2022-12-23T19:59:47.169Z,12.30
2022-12-23T20:02:55.088Z,12.25
2022-12-23T20:06:01.124Z,12.19
2022-12-23T20:09:06.283Z,12.10
2022-12-23T20:12:10.487Z,12.11
2022-12-23T20:15:13.222Z,12.07
2022-12-23T20:18:15.867Z,12.00
2022-12-23T20:21:20.517Z,12.06
2022-12-23T20:24:23.258Z,12.07
2022-12-23T20:27:28.443Z,12.05
2022-12-23T20:30:31.226Z,12.08
2022-12-23T20:33:34.184Z,12.07
2022-12-23T20:36:38.089Z,12.07
2022-12-23T20:39:40.889Z,12.09
2022-12-23T20:42:46.325Z,12.02
2022-12-23T20:45:51.561Z,11.97
2022-12-23T20:48:54.503Z,11.81
2022-12-23T20:51:57.200Z,11.80
2022-12-23T20:55:01.630Z,11.75
2022-12-23T20:58:19.644Z,11.74
2022-12-23T21:01:25.135Z,11.67
2022-12-23T21:04:28.007Z,11.62
2022-12-23T21:07:30.830Z,11.60
2022-12-23T21:10:35.671Z,11.56
2022-12-23T21:13:40.562Z,11.54
2022-12-23T21:16:44.214Z,11.48
2022-12-23T21:19:47.044Z,11.43
2022-12-23T21:22:49.863Z,11.43
2022-12-23T21:25:52.733Z,11.33
2022-12-23T21:28:59.720Z,11.41
2022-12-23T21:32:02.553Z,11.36
2022-12-23T21:35:06.061Z,11.39
2022-12-23T21:38:08.824Z,11.39
2022-12-23T21:41:13.596Z,11.41
2022-12-23T21:44:17.747Z,11.45
2022-12-23T21:47:20.662Z,11.47
2022-12-23T21:50:23.425Z,11.53
2022-12-23T21:53:26.471Z,11.48
2022-12-23T21:56:30.715Z,11.38
2022-12-23T21:59:35.548Z,11.47
2022-12-23T22:02:38.452Z,11.45
2022-12-23T22:05:41.199Z,11.48
2022-12-23T22:08:43.883Z,11.53
2022-12-23T22:11:48.137Z,11.56
2022-12-23T22:14:52.322Z,11.55
2022-12-23T22:17:55.802Z,11.56
2022-12-23T22:21:04.797Z,11.67
2022-12-23T22:24:11.267Z,11.68
2022-12-23T22:27:15.931Z,11.66
2022-12-23T22:30:21.082Z,11.55
2022-12-23T22:33:24.085Z,11.63
2022-12-23T22:36:27.657Z,11.57
2022-12-23T22:39:30.643Z,11.55
2022-12-23T22:42:34.579Z,11.34
2022-12-23T22:45:38.615Z,11.54
2022-12-23T22:48:41.497Z,11.53
2022-12-23T22:51:45.053Z,11.53
2022-12-23T22:54:47.785Z,11.47
2022-12-23T22:57:50.473Z,11.40
2022-12-23T23:00:55.160Z,11.40
2022-12-23T23:04:00.178Z,11.15
2022-12-23T23:07:03.523Z,11.32
2022-12-23T23:10:07.480Z,11.18
2022-12-23T23:13:10.266Z,11.23
2022-12-23T23:16:14.620Z,11.24
2022-12-23T23:19:20.368Z,11.26
2022-12-23T23:22:25.680Z,11.19
2022-12-23T23:25:28.351Z,11.16
2022-12-23T23:28:31.503Z,11.09
2022-12-23T23:31:44.049Z,11.08
2022-12-23T23:34:47.151Z,11.08
2022-12-23T23:37:49.957Z,11.02
2022-12-23T23:40:52.949Z,11.02
2022-12-23T23:43:55.647Z,11.00
2022-12-23T23:46:59.684Z,10.98
2022-12-23T23:50:03.538Z,10.96
2022-12-23T23:53:06.363Z,10.97
2022-12-23T23:56:09.662Z,10.97
2022-12-23T23:59:12.460Z,10.98
